Terminal Aerodrome Forecast
Issued by NWS

Home | Current Version | Previous Version | Text Only | Print | Product List | Glossary On
Versions: 1 2 3 4 5 6 7 8 9 10 11 12 13 14 15 16
000
FTUS45 KREV 012300
TAFMMH
TAF
KMMH 012336Z 0200/0224 33010G15KT P6SM SCT120 BKN200
     FM020300 VRB03KT P6SM BKN120 BKN200
     FM021600 24007KT P6SM SCT150 BKN250
      AMD NOT SKED 0202/0214=

USA.gov is the U.S. government's official web portal to all federal, state and local government web resources and services.